Time;durP1;ratioP1;P1;durP2;ratioP2;P2;SDS_P1;SDS_P2;PMS_P1;PMS_P2;Temp;Humidity;BMP_temperature;BMP_pressure;BME280_temperature;BME280_humidity;BME280_pressure;Samples;Min_cycle;Max_cycle;Signal;HPM_P1;HPM_P2
2021/01/05 06:01:46;;;;;;;26.03;13.67;;;3.10;95.10;;;;;;6312339;22;20438;31
2021/01/05 06:04:15;;;;;;;24.92;12.80;;;3.10;95.20;;;;;;6328037;22;20216;-81
2021/01/05 06:06:43;;;;;;;24.30;12.60;;;3.10;95.50;;;;;;6317513;22;20218;-80
2021/01/05 06:09:10;;;;;;;25.33;12.90;;;3.00;95.80;;;;;;6314689;22;20019;-80
2021/01/05 06:11:38;;;;;;;26.40;13.52;;;2.70;95.90;;;;;;6335819;22;20030;-81
2021/01/05 06:14:07;;;;;;;25.38;12.43;;;2.80;96.00;;;;;;6335938;22;20003;-82
2021/01/05 06:16:35;;;;;;;26.80;13.30;;;2.70;96.30;;;;;;6335759;22;20011;-82
2021/01/05 06:19:05;;;;;;;24.52;12.15;;;2.90;96.50;;;;;;6334759;22;20041;-81
2021/01/05 08:05:05;;;;;;;23.23;13.13;;;3.30;96.10;;;;;;6347901;22;20015;-82
2021/01/05 08:07:32;;;;;;;26.73;13.20;;;3.30;96.10;;;;;;6352162;22;20253;-82
2021/01/05 08:09:59;;;;;;;25.27;13.15;;;3.40;96.10;;;;;;6303826;22;20030;-82
2021/01/05 08:12:29;;;;;;;24.75;13.88;;;3.30;96.20;;;;;;6356842;22;20049;-79
2021/01/05 08:14:56;;;;;;;26.25;13.88;;;3.40;96.10;;;;;;6356219;22;20011;-82
2021/01/05 08:17:23;;;;;;;27.60;14.05;;;3.50;96.00;;;;;;6356545;22;20022;-81
2021/01/05 08:19:50;;;;;;;24.15;13.20;;;3.40;95.90;;;;;;6300022;22;20017;-81
2021/01/05 08:22:18;;;;;;;28.38;15.05;;;3.40;95.80;;;;;;6364436;22;20011;-82
2021/01/05 08:24:45;;;;;;;26.67;14.23;;;3.30;95.90;;;;;;6341563;22;20007;-82
2021/01/05 08:27:13;;;;;;;28.17;13.85;;;3.30;96.10;;;;;;6359944;22;20022;-81
2021/01/05 08:29:40;;;;;;;26.30;14.15;;;3.20;96.40;;;;;;6356839;22;20019;-81
2021/01/05 08:32:08;;;;;;;26.95;13.35;;;3.20;96.60;;;;;;6354445;22;20022;-81
2021/01/05 08:34:34;;;;;;;26.73;13.70;;;3.30;96.60;;;;;;6356484;22;20023;-82
2021/01/05 08:37:02;;;;;;;31.88;15.80;;;3.10;96.60;;;;;;6352372;22;20030;-82
2021/01/05 08:39:30;;;;;;;27.33;15.20;;;3.20;96.50;;;;;;6364338;22;20006;-82
2021/01/05 08:41:58;;;;;;;29.17;14.82;;;3.30;96.50;;;;;;6358691;22;20019;-82
2021/01/05 08:44:25;;;;;;;28.95;14.90;;;3.40;96.40;;;;;;6354519;22;20030;-82
2021/01/05 09:02:36;;;;;;;28.92;14.52;;;3.40;96.60;;;;;;6346197;22;20041;-81
2021/01/05 09:05:08;;;;;;;31.05;15.82;;;3.40;96.60;;;;;;6366183;22;20070;-82
2021/01/05 09:07:35;;;;;;;31.17;15.00;;;3.30;96.50;;;;;;6367929;22;20002;-82
2021/01/05 09:10:04;;;;;;;30.67;14.88;;;3.40;96.50;;;;;;6368031;22;20026;-82
2021/01/05 09:12:33;;;;;;;27.67;14.68;;;3.40;96.40;;;;;;6368486;22;20003;-81
2021/01/05 09:15:05;;;;;;;32.75;15.82;;;3.40;96.40;;;;;;6365563;22;20019;-81
2021/01/05 09:17:33;;;;;;;29.73;15.32;;;3.40;96.10;;;;;;6339634;22;20017;-82
2021/01/05 09:20:00;;;;;;;31.45;16.08;;;3.40;96.10;;;;;;6340792;22;20019;-83
2021/01/05 09:22:27;;;;;;;30.25;15.98;;;3.50;96.40;;;;;;6366906;22;20022;-82
2021/01/05 09:24:55;;;;;;;28.27;15.10;;;3.40;96.10;;;;;;6341474;22;19999;-82
2021/01/05 09:27:22;;;;;;;29.48;15.88;;;3.40;96.20;;;;;;6340629;22;20030;-83
2021/01/05 09:29:50;;;;;;;30.00;15.40;;;3.50;96.20;;;;;;6364400;22;20022;-82
2021/01/05 09:32:19;;;;;;;31.48;16.13;;;3.40;96.10;;;;;;6363457;22;20030;-82
2021/01/05 09:34:46;;;;;;;29.15;15.27;;;3.50;96.20;;;;;;6364001;22;20030;-81
2021/01/05 09:37:14;;;;;;;29.40;14.27;;;3.50;96.40;;;;;;6365205;22;20019;-82
2021/01/05 09:39:41;;;;;;;29.25;14.90;;;3.60;96.50;;;;;;6337062;22;20554;-82
2021/01/05 09:42:09;;;;;;;29.27;14.98;;;3.50;96.30;;;;;;6363830;22;20022;-81
2021/01/05 09:44:36;;;;;;;29.08;15.48;;;3.50;96.30;;;;;;6333096;22;20025;-82
2021/01/05 09:47:04;;;;;;;30.83;16.20;;;3.50;96.40;;;;;;6332806;22;20025;-82
2021/01/05 09:49:31;;;;;;;31.20;15.43;;;3.60;96.30;;;;;;6360232;22;20021;-82
2021/01/05 09:52:01;;;;;;;29.70;15.23;;;3.50;96.20;;;;;;6361693;22;20015;-82
2021/01/05 09:54:31;;;;;;;30.25;15.80;;;3.50;96.20;;;;;;6358858;22;20023;-81
2021/01/05 09:57:02;;;;;;;36.40;18.40;;;3.50;96.40;;;;;;6358074;22;20078;-82
2021/01/05 09:59:29;;;;;;;35.97;18.17;;;3.50;96.50;;;;;;6359284;22;20070;-81
2021/01/05 10:01:59;;;;;;;31.30;16.23;;;3.60;96.50;;;;;;6365589;22;20026;-84
2021/01/05 10:04:27;;;;;;;42.03;22.00;;;3.50;96.60;;;;;;6340284;22;20003;-82
2021/01/05 11:11:48;;;;;;;35.35;18.15;;;3.10;98.00;;;;;;6301661;22;20891;31
2021/01/05 11:19:40;;;;;;;34.67;18.00;;;3.30;98.10;;;;;;6296537;22;20011;-82
2021/01/05 11:22:17;;;;;;;39.33;19.33;;;3.20;98.10;;;;;;6331626;22;20071;-82
2021/01/05 11:40:18;;;;;;;48.83;24.40;;;3.50;97.80;;;;;;6324619;22;20051;-83
2021/01/05 11:50:36;;;;;;;36.83;19.63;;;3.50;97.60;;;;;;6320184;22;20030;-84
2021/01/05 11:53:08;;;;;;;38.17;19.98;;;3.40;97.70;;;;;;6336899;22;20076;-81
2021/01/05 13:22:26;;;;;;;35.20;16.88;;;4.20;97.20;;;;;;6296069;22;20053;-81
2021/01/05 13:25:15;;;;;;;34.72;18.10;;;4.10;97.00;;;;;;6301893;22;20011;-80
2021/01/05 13:27:52;;;;;;;30.85;16.83;;;4.10;97.20;;;;;;6302735;22;20026;-82
2021/01/05 13:30:23;;;;;;;37.50;18.00;;;4.10;97.50;;;;;;6295117;22;20004;-81
2021/01/05 13:45:50;;;;;;;31.48;16.95;;;4.00;97.70;;;;;;6348616;22;20006;-83
2021/01/05 14:42:45;;;;;;;37.00;19.88;;;4.10;97.90;;;;;;6300359;22;20018;-80
2021/01/05 14:51:11;;;;;;;36.03;18.38;;;4.20;97.80;;;;;;6313877;22;21984;-78
2021/01/05 16:59:57;;;;;;;31.90;16.23;;;3.90;99.10;;;;;;6358918;22;20316;-82
2021/01/05 17:13:07;;;;;;;31.63;16.25;;;3.80;99.50;;;;;;6357494;22;20011;-81
2021/01/05 17:15:35;;;;;;;37.35;20.35;;;3.90;99.20;;;;;;6361942;22;20019;-82
2021/01/05 17:23:14;;;;;;;28.73;15.48;;;4.00;98.90;;;;;;6329947;22;20021;-82
2021/01/05 17:28:19;;;;;;;27.63;15.30;;;3.90;98.90;;;;;;6333543;22;20015;-86
2021/01/05 17:33:21;;;;;;;;;;;4.00;99.00;;;;;;6328041;22;20019;-81
2021/01/05 17:35:49;;;;;;;36.47;18.33;;;4.00;99.00;;;;;;6329901;22;19971;-81
2021/01/05 17:38:18;;;;;;;43.42;21.23;;;3.90;98.90;;;;;;6308505;22;20057;-83
2021/01/05 17:40:45;;;;;;;47.60;23.83;;;3.90;99.00;;;;;;6328351;22;20022;-81
2021/01/05 17:43:16;;;;;;;39.45;19.92;;;3.90;99.00;;;;;;6299090;22;20015;-81
2021/01/05 17:45:43;;;;;;;32.25;16.63;;;3.90;99.00;;;;;;6324149;22;20030;-81
2021/01/05 17:48:11;;;;;;;27.33;15.45;;;4.00;99.00;;;;;;6300253;22;20023;-82
2021/01/05 17:50:39;;;;;;;28.20;14.90;;;3.90;99.00;;;;;;6276680;22;20015;-81
2021/01/05 17:53:06;;;;;;;34.05;17.15;;;4.00;98.90;;;;;;6305225;22;20031;-83
2021/01/05 17:55:34;;;;;;;28.55;15.93;;;4.00;99.00;;;;;;6335383;22;20021;-81
2021/01/05 17:58:02;;;;;;;31.95;16.20;;;4.00;99.10;;;;;;6334045;22;20019;-79
2021/01/05 18:00:32;;;;;;;28.33;15.65;;;4.00;99.10;;;;;;6335166;22;20015;-82
2021/01/05 18:02:59;;;;;;;29.02;15.63;;;3.90;99.10;;;;;;6336442;22;20051;-84
2021/01/05 18:13:13;;;;;;;27.20;15.38;;;4.10;98.80;;;;;;6306656;22;20015;-83
2021/01/05 18:15:41;;;;;;;28.75;14.93;;;4.10;98.70;;;;;;6365275;22;20030;-82
2021/01/05 18:18:08;;;;;;;28.00;15.10;;;4.10;98.70;;;;;;6362945;22;20019;-83
2021/01/05 18:20:36;;;;;;;30.65;16.13;;;4.20;98.70;;;;;;6359304;22;20348;-82
2021/01/05 18:23:03;;;;;;;44.88;23.67;;;4.00;98.80;;;;;;6345060;22;20015;-82
2021/01/05 18:25:30;;;;;;;30.60;16.75;;;4.10;99.00;;;;;;6367376;22;20031;-84
2021/01/05 18:27:59;;;;;;;27.90;15.93;;;4.00;99.00;;;;;;6368309;22;20019;-82
2021/01/05 18:35:38;;;;;;;30.23;15.40;;;4.00;99.20;;;;;;6330908;22;20049;-80
2021/01/05 18:38:11;;;;;;;28.15;15.30;;;4.20;99.30;;;;;;6306792;22;20007;-83
2021/01/05 18:58:04;;;;;;;36.63;21.92;;;3.90;99.50;;;;;;6276206;22;20107;-82
2021/01/05 19:00:33;;;;;;;33.20;17.85;;;4.00;99.50;;;;;;6352491;22;20347;-80
2021/01/05 19:05:41;;;;;;;29.13;15.90;;;4.10;99.20;;;;;;6305457;22;20010;-84
2021/01/05 19:08:09;;;;;;;30.63;16.20;;;4.20;99.30;;;;;;6280695;22;20012;-82
2021/01/05 19:13:21;;;;;;;31.15;15.98;;;4.10;99.10;;;;;;6352400;22;20009;-82
2021/01/05 19:15:49;;;;;;;30.10;15.82;;;4.00;99.00;;;;;;6366142;22;20045;-82
2021/01/05 19:18:16;;;;;;;30.92;16.00;;;3.90;99.10;;;;;;6349739;22;20026;-79
2021/01/05 20:46:32;;;;;;;33.25;16.52;;;4.00;98.80;;;;;;6301701;22;20050;-83
2021/01/05 20:54:12;;;;;;;32.05;15.82;;;3.90;98.60;;;;;;6334288;22;20048;-82
2021/01/05 20:56:51;;;;;;;32.95;16.58;;;3.70;98.90;;;;;;6308468;22;20079;-82
2021/01/05 20:59:42;;;;;;;33.22;16.40;;;3.70;99.30;;;;;;6324647;22;20015;-82
2021/01/05 21:04:48;;;;;;;32.17;15.80;;;3.50;99.40;;;;;;6340855;22;20019;-80
2021/01/05 21:07:16;;;;;;;30.85;15.43;;;3.50;99.50;;;;;;6331031;22;19998;-81
2021/01/05 21:09:43;;;;;;;32.90;15.98;;;3.40;99.60;;;;;;6335597;22;20007;-82
2021/01/05 21:17:24;;;;;;;31.13;15.38;;;3.40;99.70;;;;;;6304324;22;20010;-82
2021/01/05 21:19:52;;;;;;;31.15;14.55;;;3.30;99.50;;;;;;6303605;22;20014;-82
2021/01/05 21:22:19;;;;;;;34.05;16.15;;;3.50;99.60;;;;;;6305165;22;20015;-81
2021/01/05 21:24:47;;;;;;;31.42;15.50;;;3.50;99.00;;;;;;6279710;22;20027;-82
2021/01/05 21:42:51;;;;;;;31.08;15.93;;;3.60;99.70;;;;;;6330896;22;20029;-80
